Terminal Aerodrome Forecast
Issued by NWS Grand Forks, ND

Home | Current Version | Previous Version | Text Only | Print | Product List | Glossary Off
Versions: 1 2 3 4 5 6 7 8 9 10 11 12 13 14 15

000
FTUS43 KFGF 200125 AAA
TAFFAR
TAF AMD
KFAR 200125Z 2001/2024 32020KT P6SM BKN090
      TEMPO 2001/2002 VRB25G35KT 4SM -TSRA OVC040CB
     FM200300 VRB03KT P6SM VCSH BKN100
     FM200500 25004KT P6SM SCT100
     FM201000 32006KT P6SM FEW150=

USA.gov is the U.S. government's official web portal to all federal, state and local government web resources and services.